• Join FlightAware (Why Join?)
  • Login
  • US Flag 
03:21PM EDT


 

Airport Tracker/Info


-or-


 

Live Flight TrackerFlight Track Log ✈ ASQ4283 ✈ 30-Jun-2013 ✈ KORD - KBNA

Flight Track Log - Related Links

Times and Time Zones

All times are in EDT time to prevent confusion due to time zone crossing. See the ASQ4283 flight status page for this flight to view local times or setup timezone preferences in your user account.

Time Position Orientation Groundspeed Altitude Reporting Facility
EDT Latitude Longitude Course Direction KTS MPH feet Rate Location/Type
03:22PM 41.9667 -87.8500 186° South 207 238 2,900  Level Chicago TRACON
03:22PM 41.9392 -87.8197 141° Southeast 226 260 4,100 2,520 Climbing Chicago Center
03:23PM 41.8583 -87.7878 164° South 261 300 7,100 2,700 Climbing Chicago Center
03:24PM 41.7781 -87.7986 186° South 287 330 9,800 2,580 Climbing Chicago Center
03:25PM 41.6021 -87.8204 180° South  Level Estimated
03:25PM 41.6992 -87.8150 189° South 290 334 12,500  Level Chicago Center
03:26PM 41.5072 -87.7990 176° South  Level Estimated
03:26PM 41.6178 -87.8339 190° South 295 339 14,600  Level Chicago Center
03:27PM 41.4123 -87.7777 186° South  Level Estimated
03:27PM 41.5253 -87.8408 183° South 333 383 15,900  Level Chicago Center
03:29PM 41.4247 -87.8258 174° South 355 409 17,100 1,200 Climbing Chicago Center
03:30PM 41.3192 -87.8111 174° South 372 428 18,400 1,380 Climbing Chicago Center
03:31PM 41.0953 -87.7769 173° South 394 453 21,300 1,380 Climbing Indianapolis Center
03:33PM 40.9839 -87.7608 174° South 399 459 22,600 1,260 Climbing Indianapolis Center
03:34PM 40.8714 -87.7447 174° South 405 466 23,900 1,260 Climbing Indianapolis Center
03:35PM 40.7578 -87.7292 174° South 409 471 25,200 1,320 Climbing Indianapolis Center
03:36PM 40.6233 -87.7092 174° South 408 470 26,700 1,260 Climbing Indianapolis Center
03:37PM 40.5111 -87.6925 174° South 407 468 27,900 1,140 Climbing Indianapolis Center
03:38PM 40.3994 -87.6761 174° South 405 466 29,100 1,140 Climbing Indianapolis Center
03:39PM 40.2878 -87.6603 174° South 405 466 30,300 1,200 Climbing Indianapolis Center
03:40PM 40.1575 -87.6403 173° South 405 466 31,800 1,080 Climbing Chicago Center
03:41PM 40.0653 -87.6278 174° South 403 464 32,600 600 Climbing Indianapolis Center
03:42PM 39.9278 -87.6083 174° South 415 478 33,000 180 Climbing Indianapolis Center
03:43PM 39.8097 -87.5908 174° South 425 489 33,000  Level Indianapolis Center
03:44PM 39.6894 -87.5747 174° South 435 501 33,000  Level Indianapolis Center
03:45PM 39.5689 -87.5569 174° South 436 502 33,000  Level Indianapolis Center
03:46PM 39.4500 -87.5411 174° South 432 497 33,000  Level Indianapolis Center
03:47PM 39.3328 -87.5242 174° South 426 490 33,000  Level Indianapolis Center
03:48PM 39.2161 -87.5083 174° South 424 488 33,000  Level Indianapolis Center
03:49PM 39.0789 -87.4900 174° South 430 495 33,000  Level Indianapolis Center
03:50PM 38.9578 -87.4731 174° South 435 501 33,000 60 Level Indianapolis Center
03:51PM 38.8367 -87.4558 174° South 438 504 33,200 480 Climbing Indianapolis Center
03:52PM 38.7172 -87.4392 174° South 433 498 34,000 360 Climbing Indianapolis Center
03:53PM 38.5986 -87.4231 174° South 428 493 34,000  Level Indianapolis Center
03:54PM 38.4567 -87.3983 172° South 429 494 34,000  Level Indianapolis Center
03:55PM 38.3444 -87.3511 162° South 427 491 34,000  Level Indianapolis Center
03:56PM 38.2358 -87.3047 161° South 419 482 34,000 -540 Level Indianapolis Center
03:57PM 38.1286 -87.2550 160° South 415 478 33,000 -1,320 Descending Indianapolis Center
03:58PM 38.0189 -87.2097 162° South 417 480 31,300 -1,800 Descending Indianapolis Center
03:59PM 37.9047 -87.1656 163° South 428 493 29,300 -2,160 Descending Indianapolis Center
04:00PM 37.7622 -87.1047 161° South 448 516 26,900 -2,160 Descending Indianapolis Center
04:01PM 37.6414 -87.0614 164° South 450 518 24,900 -1,860 Descending Indianapolis Center
04:02PM 37.5178 -87.0631 181° South 440 506 23,200 -960 Descending Indianapolis Center
04:03PM 37.3975 -87.0711 183° South 432 497 23,000 -120 Descending Indianapolis Center
04:04PM 37.2803 -87.0772 182° South 420 483 23,000  Level Indianapolis Center
04:05PM 37.1611 -87.0825 182° South 423 487 23,000 -300 Level Indianapolis Center
04:06PM 37.0419 -87.0875 182° South 424 488 22,500 -1,320 Descending Indianapolis Center
04:07PM 36.9494 -87.0939 183° South 424 488 20,900 -2,280 Descending Memphis Center
04:08PM 36.8892 -87.0989 184° South 415 478 19,600 -2,280 Descending Memphis Center
04:09PM 36.7739 -87.0778 172° South 400 460 17,100 -2,160 Descending Memphis Center
04:10PM 36.6869 -87.0217 153° Southeast 367 422 15,300 -1,800 Descending Memphis Center
04:11PM 36.6064 -86.9708 153° Southeast 344 396 13,500 -1,800 Descending Memphis Center
04:12PM 36.5281 -86.9275 156° South 322 371 11,800 -1,620 Descending Memphis Center
04:13PM 36.4561 -86.8894 157° South 299 344 10,300 -1,560 Descending Memphis Center
04:14PM 36.3903 -86.8508 155° Southeast 277 319 8,700 -1,500 Descending Memphis Center
04:15PM 36.3308 -86.8044 148° Southeast 272 313 7,400 -1,260 Descending Memphis Center
04:16PM 36.2628 -86.7664 156° South 267 307 6,200 -1,500 Descending Memphis Center
04:17PM 36.1964 -86.7719 184° South 240 276 4,400 -1,560 Descending Memphis Center
04:18PM 36.1214 -86.7725 180° South 240 276 3,100 -1,320 Descending Memphis Center